Time;durP1;ratioP1;P1;durP2;ratioP2;P2;SDS_P1;SDS_P2;PMS_P1;PMS_P2;Temp;Humidity;BMP_temperature;BMP_pressure;BME280_temperature;BME280_humidity;BME280_pressure;Samples;Min_cycle;Max_cycle;Signal;HPM_P1;HPM_P2
2022/06/02 00:01:04;;;;;;;200.18;39.58;;;8.30;99.90;;;;;;5109203;27;20069;-68
2022/06/02 00:03:54;;;;;;;91.93;26.27;;;8.20;99.90;;;;;;5108504;27;20119;-68
2022/06/02 00:06:36;;;;;;;57.33;15.57;;;8.20;99.90;;;;;;5136490;27;20051;-68
2022/06/02 00:09:39;;;;;;;200.05;25.25;;;8.10;99.90;;;;;;5108101;27;20079;-68
2022/06/02 00:12:09;;;;;;;29.90;20.95;;;8.10;99.90;;;;;;5139463;27;20227;-68
2022/06/02 00:15:10;;;;;;;18.13;16.30;;;8.00;99.90;;;;;;5090190;27;20050;-68
2022/06/02 00:18:04;;;;;;;22.13;16.70;;;8.00;99.90;;;;;;5124765;27;20513;-68
2022/06/02 00:20:46;;;;;;;12.95;11.85;;;8.00;99.90;;;;;;5120465;27;20393;-68
2022/06/02 00:23:46;;;;;;;202.85;35.40;;;7.90;99.90;;;;;;5088633;27;20088;-68
2022/06/02 00:26:46;;;;;;;159.02;30.92;;;7.90;99.90;;;;;;5086049;27;20047;-68
2022/06/02 00:29:17;;;;;;;23.17;20.67;;;7.90;99.90;;;;;;5106385;27;20046;-68
2022/06/02 00:32:16;;;;;;;379.98;38.55;;;7.90;99.90;;;;;;5107767;27;20062;-68
2022/06/02 00:35:14;;;;;;;327.02;38.25;;;7.90;99.90;;;;;;5106438;27;20040;-68
2022/06/02 00:37:46;;;;;;;15.15;12.40;;;7.90;99.90;;;;;;5090282;27;20081;-68
2022/06/02 00:40:16;;;;;;;37.47;15.43;;;7.90;99.90;;;;;;5106704;27;20069;-68
2022/06/02 00:43:10;;;;;;;180.18;28.48;;;7.80;99.90;;;;;;5106688;27;20096;-68
2022/06/02 00:45:42;;;;;;;68.45;20.52;;;7.80;99.90;;;;;;5088326;27;20345;-68
2022/06/02 00:48:40;;;;;;;15.75;14.10;;;7.80;99.90;;;;;;5102180;27;20057;-68
2022/06/02 00:51:11;;;;;;;56.92;23.77;;;7.80;99.90;;;;;;5105774;27;20390;-68
2022/06/02 00:57:31;;;;;;;53.78;21.42;;;7.80;99.90;;;;;;5137349;27;20047;-68
2022/06/02 01:00:09;;;;;;;110.18;21.80;;;7.70;99.90;;;;;;5093943;27;20108;-68
2022/06/02 01:02:55;;;;;;;14.95;13.65;;;7.70;99.90;;;;;;5082078;27;20051;-68
2022/06/02 01:05:52;;;;;;;16.95;15.32;;;7.60;99.90;;;;;;5132783;27;20051;-68
2022/06/02 01:08:29;;;;;;;57.40;27.00;;;7.60;99.90;;;;;;5100742;27;20082;-68
2022/06/02 01:10:55;;;;;;;56.05;18.98;;;7.60;99.90;;;;;;5116450;27;20071;-68
2022/06/02 01:13:30;;;;;;;60.22;29.55;;;7.60;99.90;;;;;;5104233;27;20083;-68
2022/06/02 01:16:10;;;;;;;383.67;39.05;;;7.60;99.90;;;;;;5103520;27;20039;-68
2022/06/02 01:19:00;;;;;;;44.47;16.08;;;7.50;99.90;;;;;;5099676;27;20055;-68
2022/06/02 01:21:47;;;;;;;308.63;38.92;;;7.50;99.90;;;;;;5106539;27;21333;-68
2022/06/02 01:24:14;;;;;;;22.85;13.70;;;7.50;99.90;;;;;;5087143;27;20039;-68
2022/06/02 01:27:04;;;;;;;23.75;17.65;;;7.40;99.90;;;;;;5136351;27;20051;-68
2022/06/02 01:30:08;;;;;;;17.70;11.98;;;7.40;99.90;;;;;;5106191;27;20031;-68
2022/06/02 01:33:04;;;;;;;37.15;16.30;;;7.30;99.90;;;;;;5004376;28;20045;-68
2022/06/02 01:36:20;;;;;;;68.32;23.73;;;7.30;99.90;;;;;;5006414;28;20045;-68
2022/06/02 01:39:01;;;;;;;196.70;26.80;;;7.20;99.90;;;;;;5026352;28;20166;-67
2022/06/02 01:41:51;;;;;;;54.85;17.45;;;7.20;99.90;;;;;;5019580;28;20057;-68
2022/06/02 01:44:25;;;;;;;;;;;7.10;99.90;;;;;;5066511;27;20063;-72
2022/06/02 01:47:17;;;;;;;114.85;28.65;;;7.00;99.90;;;;;;5081868;27;19963;-72
2022/06/02 01:50:22;;;;;;;146.20;26.52;;;6.90;99.90;;;;;;5096278;27;20055;-72
2022/06/02 01:53:33;;;;;;;52.90;18.05;;;7.00;99.90;;;;;;5021746;28;20056;-72
2022/06/02 01:56:24;;;;;;;21.17;12.55;;;6.90;99.90;;;;;;5093832;27;20058;-72
2022/06/02 01:59:12;;;;;;;169.57;20.85;;;6.90;99.90;;;;;;5099864;27;20046;-72
2022/06/02 02:02:01;;;;;;;309.88;35.88;;;6.90;99.90;;;;;;5101014;27;20043;-72
2022/06/02 02:04:54;;;;;;;20.85;18.83;;;6.90;99.90;;;;;;5102539;27;20043;-72
2022/06/02 02:07:32;;;;;;;120.38;26.98;;;6.90;99.90;;;;;;5093690;27;20093;-72
2022/06/02 02:10:18;;;;;;;18.58;16.88;;;6.90;99.90;;;;;;5104043;27;20509;-68
2022/06/02 02:12:50;;;;;;;35.40;19.08;;;6.90;99.90;;;;;;5092306;28;20044;-69
2022/06/02 02:15:27;;;;;;;19.48;17.70;;;6.90;99.90;;;;;;5095263;28;20143;-68
2022/06/02 02:18:12;;;;;;;89.28;28.92;;;6.90;99.90;;;;;;5080882;28;20051;-69
2022/06/02 02:20:53;;;;;;;54.45;23.73;;;6.90;99.90;;;;;;5101192;28;20057;-68
2022/06/02 02:23:37;;;;;;;46.05;18.85;;;6.90;99.90;;;;;;5099240;28;20051;-68
2022/06/02 02:26:20;;;;;;;146.60;31.17;;;7.00;99.90;;;;;;5097375;28;20514;-68
2022/06/02 02:29:07;;;;;;;63.38;28.92;;;6.90;99.90;;;;;;5099152;28;20092;-68
2022/06/02 02:32:02;;;;;;;41.85;24.67;;;6.90;99.90;;;;;;5080016;28;20043;-68
2022/06/02 02:34:49;;;;;;;204.80;42.63;;;6.90;99.90;;;;;;5082423;28;20035;-68
2022/06/02 02:37:37;;;;;;;352.38;47.90;;;6.90;99.90;;;;;;5103252;28;20043;-68
2022/06/02 02:40:40;;;;;;;272.65;33.40;;;6.90;99.90;;;;;;5086521;28;20040;-68
2022/06/02 02:43:27;;;;;;;231.90;32.15;;;6.90;99.90;;;;;;5083072;28;20040;-68
2022/06/02 02:46:09;;;;;;;260.25;37.40;;;6.80;99.90;;;;;;5096912;28;20043;-69
2022/06/02 02:48:54;;;;;;;50.53;27.17;;;6.80;99.90;;;;;;5100148;28;20052;-67
2022/06/02 02:51:30;;;;;;;117.53;31.95;;;6.70;99.90;;;;;;5133884;27;20105;-68
2022/06/02 02:54:07;;;;;;;38.25;26.63;;;6.70;99.90;;;;;;5102495;28;20151;-69
2022/06/02 02:57:07;;;;;;;23.48;20.83;;;6.70;99.90;;;;;;5098826;28;20040;-69
2022/06/02 03:00:02;;;;;;;71.30;28.08;;;6.70;99.90;;;;;;5098375;28;20632;-69
2022/06/02 03:02:31;;;;;;;185.13;37.08;;;6.70;99.90;;;;;;5098476;28;20047;-69
2022/06/02 03:05:14;;;;;;;39.55;24.73;;;6.70;99.90;;;;;;5097514;28;20518;-69
2022/06/02 03:07:40;;;;;;;110.07;39.28;;;6.70;99.90;;;;;;5101247;28;20054;-69
2022/06/02 03:10:08;;;;;;;113.47;31.65;;;6.70;99.90;;;;;;5080070;28;20056;-68
2022/06/02 03:13:11;;;;;;;21.25;19.25;;;6.80;99.90;;;;;;5083637;28;20048;-72
2022/06/02 03:15:58;;;;;;;88.00;23.98;;;6.70;99.90;;;;;;5099413;28;20115;-72
2022/06/02 03:18:37;;;;;;;18.73;16.70;;;6.70;99.90;;;;;;5082307;28;20126;-72
2022/06/02 03:21:24;;;;;;;17.23;15.73;;;6.60;99.90;;;;;;5100401;28;20397;-69
2022/06/02 03:24:05;;;;;;;15.52;14.20;;;6.60;99.90;;;;;;5085093;28;20058;-68
2022/06/02 03:26:53;;;;;;;15.65;14.27;;;6.60;99.90;;;;;;5096759;28;20054;-69
2022/06/02 03:29:28;;;;;;;14.80;13.50;;;6.60;99.90;;;;;;5095444;28;20047;-68
2022/06/02 03:32:05;;;;;;;30.73;18.98;;;6.60;99.90;;;;;;5084967;28;20134;-69
2022/06/02 03:34:47;;;;;;;19.38;17.50;;;6.60;99.90;;;;;;5094536;28;20139;-69
2022/06/02 03:37:41;;;;;;;30.02;22.85;;;6.60;99.90;;;;;;5098245;28;20379;-69
2022/06/02 03:40:10;;;;;;;18.17;16.58;;;6.60;99.90;;;;;;5079595;28;20044;-69
2022/06/02 03:43:03;;;;;;;18.92;16.25;;;6.60;99.90;;;;;;5095989;28;20387;-68
2022/06/02 03:46:03;;;;;;;25.25;20.63;;;6.60;99.90;;;;;;5079848;28;20039;-69
2022/06/02 03:48:47;;;;;;;70.33;29.07;;;6.70;99.90;;;;;;5090349;28;20048;-69
2022/06/02 03:51:32;;;;;;;217.18;42.40;;;6.70;99.90;;;;;;5097848;28;20036;-69
2022/06/02 03:54:40;;;;;;;198.75;36.75;;;6.60;99.90;;;;;;5099529;28;20050;-69
2022/06/02 03:57:23;;;;;;;162.63;31.13;;;6.60;99.90;;;;;;5102186;28;20448;-69
2022/06/02 04:00:26;;;;;;;29.45;18.15;;;6.50;99.90;;;;;;5096769;27;20382;-69
2022/06/02 04:03:07;;;;;;;21.35;19.35;;;6.50;99.90;;;;;;5103262;28;20040;-68
2022/06/02 04:06:15;;;;;;;36.38;23.95;;;6.50;99.90;;;;;;5087565;28;20055;-69
2022/06/02 04:09:00;;;;;;;45.28;28.38;;;6.60;99.90;;;;;;5084367;28;20761;-68
2022/06/02 04:14:50;;;;;;;26.30;23.80;;;6.70;99.90;;;;;;5100975;28;20035;-68
2022/06/02 04:17:26;;;;;;;23.42;21.23;;;6.60;99.90;;;;;;5097167;28;20329;-68
2022/06/02 04:23:17;;;;;;;25.13;22.83;;;6.70;99.90;;;;;;5133282;27;20537;-69
2022/06/02 04:26:10;;;;;;;32.38;28.88;;;6.80;99.90;;;;;;5103595;28;20127;-69
2022/06/02 04:28:54;;;;;;;26.65;24.20;;;6.90;99.90;;;;;;5078940;28;20535;-69
2022/06/02 04:31:44;;;;;;;28.25;25.55;;;6.90;99.90;;;;;;5098891;28;20039;-69
2022/06/02 04:34:32;;;;;;;30.83;27.70;;;7.00;99.90;;;;;;5099554;28;20402;-69
2022/06/02 04:37:12;;;;;;;29.38;26.55;;;7.10;99.90;;;;;;5105812;28;20047;-72
2022/06/02 04:40:09;;;;;;;29.95;26.92;;;7.10;99.90;;;;;;5088135;28;20040;-72
2022/06/02 04:42:37;;;;;;;27.13;24.50;;;7.20;99.90;;;;;;5101422;28;20074;-72
2022/06/02 04:45:33;;;;;;;27.23;24.63;;;7.20;99.90;;;;;;5086570;28;20043;-72
2022/06/02 04:48:11;;;;;;;28.58;25.67;;;7.30;99.90;;;;;;5100426;28;20460;-72
2022/06/02 04:50:46;;;;;;;28.40;25.55;;;7.40;99.90;;;;;;5102655;28;20595;-72
2022/06/02 04:53:12;;;;;;;28.67;25.90;;;7.40;99.90;;;;;;5085061;28;20065;-71
2022/06/02 04:55:59;;;;;;;27.92;25.13;;;7.50;99.90;;;;;;5101320;28;20117;-72
2022/06/02 04:58:59;;;;;;;27.70;24.98;;;7.60;99.90;;;;;;5136971;27;20043;-72
2022/06/02 05:01:57;;;;;;;27.52;24.83;;;7.70;99.90;;;;;;5129247;27;20082;-72
2022/06/02 05:04:31;;;;;;;31.85;28.65;;;7.80;99.90;;;;;;5097306;27;20127;-72
2022/06/02 05:07:30;;;;;;;27.45;24.67;;;7.90;99.90;;;;;;5097052;27;20058;-72
2022/06/02 05:10:14;;;;;;;35.08;31.02;;;8.00;99.90;;;;;;5082160;28;20047;-71
2022/06/02 05:13:02;;;;;;;33.85;30.60;;;8.10;99.90;;;;;;5079172;28;20044;-71
2022/06/02 05:16:05;;;;;;;33.50;30.10;;;8.20;99.90;;;;;;5102122;28;20051;-68
2022/06/02 05:18:46;;;;;;;31.10;27.88;;;8.40;99.90;;;;;;5085375;28;20038;-68
2022/06/02 05:21:46;;;;;;;34.65;30.95;;;8.50;99.90;;;;;;5086377;28;20078;-73
2022/06/02 05:24:47;;;;;;;35.20;30.95;;;8.60;99.90;;;;;;5132971;27;20059;-72
2022/06/02 05:27:15;;;;;;;30.40;27.40;;;8.70;99.90;;;;;;5121495;27;20047;-72
2022/06/02 05:30:05;;;;;;;30.98;27.95;;;8.80;99.90;;;;;;5098171;28;20529;-72
2022/06/02 05:32:37;;;;;;;29.08;26.27;;;8.90;99.90;;;;;;5097558;28;20050;-72
2022/06/02 05:35:15;;;;;;;28.60;25.80;;;9.10;99.90;;;;;;5099596;28;20304;-72
2022/06/02 05:38:02;;;;;;;30.48;27.58;;;9.10;99.90;;;;;;5084438;28;20079;-72
2022/06/02 05:40:39;;;;;;;28.98;26.23;;;9.30;99.90;;;;;;5095657;28;20851;-73
2022/06/02 05:43:26;;;;;;;28.70;25.80;;;9.40;99.90;;;;;;5081611;28;20066;-72
2022/06/02 05:46:22;;;;;;;26.58;24.00;;;9.50;99.90;;;;;;5098465;28;20031;-72
2022/06/02 05:48:59;;;;;;;27.02;24.35;;;9.60;99.90;;;;;;5089984;28;20619;-72
2022/06/02 05:51:36;;;;;;;27.02;24.50;;;9.70;99.90;;;;;;5100727;28;20085;-73
2022/06/02 05:54:36;;;;;;;27.23;24.67;;;9.80;99.90;;;;;;5096041;27;20105;-73
2022/06/02 05:57:05;;;;;;;23.03;20.93;;;9.90;99.90;;;;;;5095556;28;20047;-74
2022/06/02 05:59:52;;;;;;;24.90;22.42;;;9.90;99.90;;;;;;5096293;28;20503;-74
2022/06/02 06:02:37;;;;;;;24.08;21.83;;;10.00;99.90;;;;;;5073743;28;20098;-74
2022/06/02 06:05:07;;;;;;;21.05;18.70;;;10.10;99.90;;;;;;5082056;27;20036;-74
2022/06/02 06:07:51;;;;;;;20.30;18.48;;;10.20;99.90;;;;;;5091257;27;20043;-74
2022/06/02 06:10:45;;;;;;;20.38;18.42;;;10.30;99.90;;;;;;5091636;28;20118;-74
2022/06/02 06:13:16;;;;;;;19.52;17.73;;;10.40;99.90;;;;;;5101774;28;20048;-74
2022/06/02 06:16:11;;;;;;;18.75;16.75;;;10.50;99.90;;;;;;5097612;28;20060;-74
2022/06/02 06:19:09;;;;;;;15.13;13.63;;;10.60;99.90;;;;;;5116988;27;20051;-74
2022/06/02 06:21:57;;;;;;;16.55;14.85;;;10.70;99.90;;;;;;5080889;28;20094;-74
2022/06/02 06:24:57;;;;;;;13.15;11.80;;;10.80;99.90;;;;;;5094410;28;20390;-75
2022/06/02 06:27:52;;;;;;;15.40;12.82;;;10.90;99.90;;;;;;5080809;27;20499;-73
2022/06/02 06:30:36;;;;;;;9.93;8.95;;;11.00;99.90;;;;;;5079411;28;20047;-74
2022/06/02 06:33:22;;;;;;;10.35;9.38;;;11.10;99.90;;;;;;5080094;28;20135;-74
2022/06/02 06:36:15;;;;;;;11.00;10.00;;;11.20;99.90;;;;;;5096012;28;20043;-75
2022/06/02 06:39:03;;;;;;;10.35;9.35;;;11.30;99.90;;;;;;5096393;28;20043;-74
2022/06/02 06:41:53;;;;;;;11.02;9.93;;;11.40;99.90;;;;;;5096230;28;20051;-75
2022/06/02 06:44:38;;;;;;;9.25;6.75;;;11.60;99.90;;;;;;5075105;28;20062;-74
2022/06/02 06:47:04;;;;;;;8.73;7.32;;;11.60;99.90;;;;;;5098318;28;20059;-75
2022/06/02 06:50:08;;;;;;;6.97;6.25;;;11.80;99.90;;;;;;5095795;28;20406;-74
2022/06/02 06:52:51;;;;;;;6.35;5.28;;;11.90;99.90;;;;;;5056232;28;20426;-75
2022/06/02 06:55:22;;;;;;;7.78;6.25;;;12.10;99.90;;;;;;5100217;28;20452;-76
2022/06/02 06:58:11;;;;;;;5.28;4.78;;;12.20;99.90;;;;;;5099590;28;20063;-71
2022/06/02 07:00:59;;;;;;;5.55;4.00;;;12.30;99.90;;;;;;5082256;28;20047;-71
2022/06/02 07:03:36;;;;;;;4.20;3.30;;;12.50;99.90;;;;;;5099754;28;20048;-71
2022/06/02 07:06:39;;;;;;;5.20;3.35;;;12.60;99.90;;;;;;5097935;28;20054;-71
2022/06/02 07:09:11;;;;;;;6.90;4.43;;;12.70;99.90;;;;;;4994987;28;20060;-71
2022/06/02 07:15:07;;;;;;;5.20;3.72;;;13.00;99.90;;;;;;5111009;27;20048;-71
2022/06/02 07:17:52;;;;;;;4.88;3.38;;;13.10;99.90;;;;;;5073828;28;20078;-73
2022/06/02 07:20:24;;;;;;;4.47;3.28;;;13.30;99.90;;;;;;5080339;28;20126;-72
2022/06/02 07:23:09;;;;;;;3.35;2.53;;;13.50;99.90;;;;;;5077086;28;20106;-71
2022/06/02 07:25:38;;;;;;;4.38;3.33;;;13.60;99.90;;;;;;5062030;28;20406;-71
2022/06/02 07:28:28;;;;;;;4.20;2.58;;;13.70;99.90;;;;;;5076569;28;20055;-71
2022/06/02 07:31:12;;;;;;;5.95;2.75;;;13.80;99.90;;;;;;5063586;28;20280;-71
2022/06/02 07:34:08;;;;;;;6.03;3.45;;;13.90;99.90;;;;;;5070888;28;20040;-77
2022/06/02 07:36:59;;;;;;;3.45;3.05;;;14.00;99.90;;;;;;5117862;27;20580;-76
2022/06/02 07:39:53;;;;;;;5.63;3.20;;;14.30;99.90;;;;;;5078418;28;20040;-76
2022/06/02 07:42:53;;;;;;;4.90;3.15;;;14.30;99.90;;;;;;5085877;28;20044;-76
2022/06/02 07:45:34;;;;;;;5.82;3.20;;;14.40;99.90;;;;;;5068356;28;20055;-76
2022/06/02 07:48:12;;;;;;;5.20;4.05;;;14.50;99.90;;;;;;5079417;28;20040;-76
2022/06/02 07:51:04;;;;;;;4.68;3.13;;;14.60;99.90;;;;;;5083451;28;20044;-76
2022/06/02 07:53:57;;;;;;;4.93;3.70;;;14.70;99.90;;;;;;5082374;28;20040;-76
2022/06/02 07:56:29;;;;;;;4.75;3.38;;;14.70;99.90;;;;;;5062265;28;20171;-76
2022/06/02 07:59:11;;;;;;;4.25;3.53;;;14.60;99.90;;;;;;5077643;28;20105;-75
2022/06/02 08:02:00;;;;;;;6.00;3.70;;;14.50;99.90;;;;;;5084122;28;20047;-76
2022/06/02 08:04:37;;;;;;;3.83;3.10;;;14.50;99.90;;;;;;5081775;28;20304;-75
2022/06/02 08:07:08;;;;;;;4.43;3.83;;;14.70;99.90;;;;;;5079211;28;20052;-76
2022/06/02 08:10:10;;;;;;;6.90;3.83;;;15.00;99.90;;;;;;5083380;28;20139;-71
2022/06/02 08:13:03;;;;;;;3.95;3.33;;;15.10;99.90;;;;;;5071352;28;20054;-71
2022/06/02 08:15:34;;;;;;;4.32;2.92;;;15.00;99.90;;;;;;5031123;28;20112;-71
2022/06/02 08:18:20;;;;;;;4.82;2.83;;;15.10;99.90;;;;;;5098131;28;20208;-71
2022/06/02 08:21:15;;;;;;;4.20;2.95;;;15.30;99.90;;;;;;5096062;28;20058;-70
2022/06/02 08:24:15;;;;;;;6.63;3.33;;;15.30;99.90;;;;;;5100831;28;20051;-71
2022/06/02 08:26:40;;;;;;;3.75;2.90;;;15.10;99.90;;;;;;5098715;28;20039;-71
2022/06/02 08:29:06;;;;;;;5.50;2.70;;;15.00;99.90;;;;;;5102733;28;20579;-71
2022/06/02 08:31:55;;;;;;;3.85;2.63;;;15.10;99.90;;;;;;5102742;28;20052;-71
2022/06/02 08:35:04;;;;;;;4.53;2.90;;;15.30;99.90;;;;;;5083605;28;20042;-71
2022/06/02 08:38:10;;;;;;;5.55;2.75;;;15.60;99.90;;;;;;5120571;27;20040;-71
2022/06/02 08:40:41;;;;;;;3.47;2.15;;;15.80;99.90;;;;;;5087638;28;20047;-71
2022/06/02 08:43:25;;;;;;;3.65;2.00;;;15.80;99.90;;;;;;5101760;28;20073;-71
2022/06/02 08:46:22;;;;;;;3.97;2.20;;;15.60;99.90;;;;;;5100373;28;20039;-71
2022/06/02 08:49:40;;;;;;;3.83;2.22;;;15.50;99.90;;;;;;5083183;28;20058;-71
2022/06/02 08:52:43;;;;;;;3.90;2.17;;;15.60;99.90;;;;;;5105250;27;20477;-71
2022/06/02 08:55:36;;;;;;;3.75;2.03;;;15.80;99.90;;;;;;5101056;28;20031;-71
2022/06/02 08:58:26;;;;;;;4.80;2.30;;;16.00;99.90;;;;;;5084593;28;20048;-70
2022/06/02 09:01:39;;;;;;;5.45;2.85;;;16.20;99.90;;;;;;5082828;28;20100;-71
2022/06/02 09:04:24;;;;;;;4.47;2.67;;;16.40;99.90;;;;;;5078870;28;20047;-71
2022/06/02 09:07:02;;;;;;;4.18;2.30;;;16.30;99.90;;;;;;5083496;28;20042;-71
2022/06/02 09:10:17;;;;;;;2.78;2.03;;;16.40;99.90;;;;;;5084298;28;20054;-71
2022/06/02 09:13:24;;;;;;;2.60;1.63;;;16.60;99.90;;;;;;5045934;28;20072;-71
2022/06/02 09:16:10;;;;;;;3.35;1.92;;;16.90;99.90;;;;;;5096580;28;20497;-70
2022/06/02 09:19:06;;;;;;;3.13;1.90;;;17.10;99.90;;;;;;5086943;28;20044;-71
2022/06/02 09:21:54;;;;;;;2.75;1.88;;;17.20;99.90;;;;;;5085107;28;20036;-71
2022/06/02 09:24:32;;;;;;;2.45;1.60;;;16.90;99.90;;;;;;5098724;28;20048;-71
2022/06/02 09:27:16;;;;;;;3.55;1.98;;;16.80;99.90;;;;;;5102396;28;20055;-71
2022/06/02 09:30:12;;;;;;;2.95;1.73;;;16.70;99.90;;;;;;5082712;28;20040;-71
2022/06/02 09:33:00;;;;;;;4.53;2.28;;;16.60;99.90;;;;;;5102750;28;20494;-71
2022/06/02 09:35:37;;;;;;;4.30;2.10;;;16.50;99.90;;;;;;5102148;27;20043;-71
2022/06/02 09:38:23;;;;;;;3.72;2.30;;;16.50;99.90;;;;;;5099207;28;20572;-71
2022/06/02 09:40:50;;;;;;;2.38;1.90;;;16.50;99.90;;;;;;5102437;28;20051;-71
2022/06/02 09:43:54;;;;;;;3.25;1.90;;;16.70;99.90;;;;;;5084773;28;20747;-71
2022/06/02 09:46:21;;;;;;;4.28;1.90;;;17.00;99.90;;;;;;5046407;28;20059;-71
2022/06/02 09:49:12;;;;;;;4.78;2.10;;;17.20;99.90;;;;;;5085718;28;20570;-71
2022/06/02 09:51:54;;;;;;;2.10;1.83;;;17.10;99.90;;;;;;5098099;28;20048;-71
2022/06/02 09:54:58;;;;;;;2.47;1.65;;;17.00;99.90;;;;;;5135216;27;20047;-71
2022/06/02 09:58:02;;;;;;;3.40;1.50;;;17.10;99.90;;;;;;5098704;28;20398;-71
2022/06/02 10:00:46;;;;;;;4.80;1.73;;;17.40;99.90;;;;;;5103073;28;20706;-71
2022/06/02 10:03:46;;;;;;;4.50;1.90;;;17.70;99.90;;;;;;5098234;28;20438;-70
2022/06/02 10:06:19;;;;;;;2.53;1.50;;;18.00;99.90;;;;;;5100786;28;20047;-70
2022/06/02 10:09:04;;;;;;;2.70;1.33;;;18.20;99.90;;;;;;5097769;28;20121;-70
2022/06/02 10:15:20;;;;;;;3.85;1.45;;;18.10;99.90;;;;;;5094704;28;20705;-70
2022/06/02 10:18:08;;;;;;;3.22;1.77;;;18.00;99.90;;;;;;5094302;28;20054;-70
2022/06/02 10:20:53;;;;;;;3.00;1.70;;;18.10;99.90;;;;;;5095936;28;20233;-70
2022/06/02 10:24:05;;;;;;;4.72;1.90;;;18.10;99.90;;;;;;5076780;28;20042;-71
2022/06/02 10:27:08;;;;;;;4.18;1.80;;;17.90;99.90;;;;;;5078598;28;20369;-71
2022/06/02 10:29:56;;;;;;;4.53;1.58;;;17.70;99.90;;;;;;5095539;28;20058;-71
2022/06/02 10:32:28;;;;;;;2.97;1.88;;;17.60;99.90;;;;;;5094952;28;20430;-71
2022/06/02 10:35:38;;;;;;;4.60;1.92;;;17.90;99.90;;;;;;5078045;28;20051;-72
2022/06/02 10:38:26;;;;;;;3.17;1.48;;;18.30;99.90;;;;;;5096155;28;20150;-77
2022/06/02 10:41:02;;;;;;;2.78;1.45;;;18.60;99.90;;;;;;5077273;28;20127;-77
2022/06/02 10:43:56;;;;;;;2.60;1.58;;;18.80;99.90;;;;;;5079107;28;20846;-76
2022/06/02 10:46:50;;;;;;;2.30;1.45;;;18.80;99.90;;;;;;5078015;28;20056;-76
2022/06/02 10:49:44;;;;;;;4.28;2.25;;;18.60;99.90;;;;;;5094166;28;20078;-76
2022/06/02 10:52:31;;;;;;;2.50;1.65;;;18.30;99.90;;;;;;5084561;28;20039;-77
2022/06/02 10:55:13;;;;;;;3.70;1.83;;;18.10;99.90;;;;;;5100588;28;20071;-76
2022/06/02 10:57:41;;;;;;;3.30;1.80;;;17.80;99.90;;;;;;5102109;28;20047;-70
2022/06/02 11:00:18;;;;;;;4.68;2.10;;;17.70;99.90;;;;;;5085673;28;20130;-70
2022/06/02 11:03:02;;;;;;;3.17;1.58;;;17.50;99.90;;;;;;5103013;28;20050;-70
2022/06/02 11:06:21;;;;;;;2.25;1.50;;;17.50;99.90;;;;;;5085219;28;20149;-71
2022/06/02 11:08:50;;;;;;;4.45;1.80;;;17.50;99.90;;;;;;5040010;28;20500;-71
2022/06/02 11:11:32;;;;;;;2.60;1.42;;;17.80;99.90;;;;;;5090780;28;20369;-71
2022/06/02 11:14:22;;;;;;;4.50;1.30;;;18.10;99.90;;;;;;5102728;28;20126;-70
2022/06/02 11:17:00;;;;;;;1.67;1.40;;;18.20;99.90;;;;;;5103971;28;20249;-70
2022/06/02 11:19:47;;;;;;;2.28;1.40;;;18.20;99.90;;;;;;5101619;28;20043;-71
2022/06/02 11:22:28;;;;;;;3.38;1.42;;;18.20;99.90;;;;;;5085188;28;20128;-71
2022/06/02 11:25:15;;;;;;;4.45;2.00;;;18.40;99.90;;;;;;5101041;28;20375;-71
2022/06/02 11:27:53;;;;;;;5.43;1.98;;;18.80;99.90;;;;;;5097913;28;20039;-71
2022/06/02 11:30:39;;;;;;;1.70;1.30;;;19.20;99.90;;;;;;5105313;28;20051;-71
2022/06/02 11:33:39;;;;;;;3.13;1.58;;;19.30;99.90;;;;;;5046989;28;20108;-71
2022/06/02 11:36:21;;;;;;;2.45;1.45;;;19.50;99.90;;;;;;5104637;28;20044;-70
2022/06/02 11:39:26;;;;;;;3.15;1.45;;;19.70;99.90;;;;;;5108154;28;20047;-70
2022/06/02 11:42:01;;;;;;;3.20;1.55;;;20.00;99.90;;;;;;5095902;28;20059;-70
2022/06/02 11:45:11;;;;;;;2.65;1.45;;;20.30;99.90;;;;;;5099701;27;20054;-71
2022/06/02 11:47:59;;;;;;;2.38;1.50;;;20.60;99.90;;;;;;5063933;28;20059;-70
2022/06/02 11:50:52;;;;;;;3.25;1.05;;;20.70;99.90;;;;;;5105551;28;20055;-71
2022/06/02 11:53:21;;;;;;;4.10;1.35;;;20.90;99.90;;;;;;5103245;28;20092;-71
2022/06/02 11:56:08;;;;;;;4.75;1.80;;;21.00;99.90;;;;;;5088683;28;20027;-70
2022/06/02 11:58:57;;;;;;;1.60;1.23;;;21.10;99.60;;;;;;5085598;28;20051;-71
2022/06/02 12:02:00;;;;;;;2.87;1.30;;;21.00;94.80;;;;;;5087923;28;20405;-71
2022/06/02 12:04:48;;;;;;;2.35;1.38;;;20.90;98.60;;;;;;5118590;27;20039;-70
2022/06/02 12:07:32;;;;;;;1.85;1.10;;;20.90;99.90;;;;;;5087899;28;20051;-71
2022/06/02 12:10:33;;;;;;;2.08;0.95;;;20.90;98.00;;;;;;5086710;28;20039;-71
2022/06/02 12:13:25;;;;;;;1.75;1.10;;;20.90;95.10;;;;;;5046581;28;20310;-71
2022/06/02 12:16:22;;;;;;;2.65;1.30;;;21.00;93.60;;;;;;5084875;28;20044;-71
2022/06/02 12:19:23;;;;;;;1.95;1.05;;;21.10;96.30;;;;;;5117313;27;20525;-71
2022/06/02 12:22:28;;;;;;;5.10;1.63;;;20.80;95.20;;;;;;5088141;28;20058;-71
2022/06/02 12:25:22;;;;;;;1.85;1.20;;;20.40;95.40;;;;;;5086050;28;20097;-71
2022/06/02 12:28:20;;;;;;;2.85;1.55;;;19.90;95.60;;;;;;5087036;28;20116;-71
2022/06/02 12:31:18;;;;;;;3.00;1.70;;;19.50;95.00;;;;;;5090332;28;20091;-71
2022/06/02 12:33:58;;;;;;;4.22;1.50;;;19.10;97.40;;;;;;5100163;28;20031;-71
2022/06/02 12:36:30;;;;;;;2.10;1.42;;;18.90;97.00;;;;;;5100607;28;20043;-71
2022/06/02 12:39:08;;;;;;;3.20;1.15;;;18.70;97.20;;;;;;5084649;28;20965;-71
2022/06/02 12:42:08;;;;;;;4.25;1.20;;;18.60;98.20;;;;;;5102336;28;20043;-72
2022/06/02 12:44:53;;;;;;;2.72;1.23;;;18.50;99.30;;;;;;5083483;28;20031;-71
2022/06/02 12:47:40;;;;;;;2.08;1.23;;;18.50;99.50;;;;;;5101364;28;20177;-71
2022/06/02 12:50:40;;;;;;;2.53;1.35;;;18.40;98.00;;;;;;5103093;28;20048;-72
2022/06/02 12:53:46;;;;;;;1.90;1.23;;;18.40;99.90;;;;;;5104779;28;20046;-71
2022/06/02 12:56:28;;;;;;;3.10;1.45;;;18.40;99.90;;;;;;5101357;28;20040;-71
2022/06/02 12:59:16;;;;;;;2.55;1.48;;;18.50;99.90;;;;;;5098122;28;20040;-72
2022/06/02 13:02:03;;;;;;;5.32;1.55;;;18.80;99.90;;;;;;5087870;28;20046;-71
2022/06/02 13:05:07;;;;;;;2.33;1.08;;;18.90;99.90;;;;;;5084655;28;20062;-71
2022/06/02 13:08:09;;;;;;;1.98;1.08;;;18.70;99.90;;;;;;5102427;28;20069;-72
2022/06/02 13:10:58;;;;;;;3.13;1.20;;;18.70;99.90;;;;;;5097754;28;20105;-71
2022/06/02 13:13:47;;;;;;;1.52;1.20;;;18.90;99.90;;;;;;5075305;28;20135;-71
2022/06/02 13:16:39;;;;;;;4.60;1.52;;;19.20;99.90;;;;;;5078927;28;20039;-71
2022/06/02 13:19:54;;;;;;;2.85;1.27;;;19.30;99.90;;;;;;5066136;28;20086;-71
2022/06/02 13:22:35;;;;;;;2.33;1.27;;;19.40;99.90;;;;;;5077865;28;20051;-70
2022/06/02 13:25:23;;;;;;;4.40;1.48;;;19.80;99.90;;;;;;5077574;28;20040;-70
2022/06/02 13:28:26;;;;;;;2.17;1.25;;;20.20;99.90;;;;;;5081657;28;20203;-70
2022/06/02 13:30:52;;;;;;;1.88;1.00;;;20.60;99.90;;;;;;5028804;28;20040;-71
2022/06/02 13:33:39;;;;;;;3.78;1.13;;;20.90;94.70;;;;;;5062827;28;20043;-70
2022/06/02 13:36:31;;;;;;;4.03;1.20;;;21.10;93.50;;;;;;5080672;28;20040;-71
2022/06/02 13:39:06;;;;;;;2.45;1.30;;;21.50;93.10;;;;;;5069444;28;20051;-71
2022/06/02 13:41:45;;;;;;;1.50;1.00;;;21.70;91.30;;;;;;5085727;28;20142;-71
2022/06/02 13:44:29;;;;;;;2.55;0.90;;;21.90;89.40;;;;;;5080118;28;20482;-71
2022/06/02 13:47:16;;;;;;;1.80;1.05;;;22.20;93.10;;;;;;5073828;28;20407;-71
2022/06/02 13:50:36;;;;;;;2.78;1.38;;;22.60;67.60;;;;;;5082697;28;20491;-71
2022/06/02 13:53:20;;;;;;;4.22;1.20;;;22.60;78.70;;;;;;5010011;28;20087;-71
2022/06/02 13:59:01;;;;;;;2.78;1.48;;;22.70;81.90;;;;;;5080765;28;20044;-71
2022/06/02 14:01:45;;;;;;;2.45;1.13;;;22.90;84.20;;;;;;5071592;28;20075;-72
2022/06/02 14:04:40;;;;;;;2.13;1.15;;;22.90;80.50;;;;;;5084215;28;20047;-71
2022/06/02 14:07:56;;;;;;;3.13;1.20;;;23.10;75.20;;;;;;5029555;28;20279;-72
2022/06/02 14:10:50;;;;;;;3.33;1.10;;;23.20;66.90;;;;;;5006940;28;20052;-72
2022/06/02 14:13:31;;;;;;;4.03;1.40;;;23.20;77.10;;;;;;5072344;28;20502;-71
2022/06/02 14:16:15;;;;;;;3.10;1.30;;;23.30;77.70;;;;;;5085948;28;20046;-71
2022/06/02 14:18:46;;;;;;;2.33;1.10;;;23.40;80.40;;;;;;5100294;27;20047;-72
2022/06/02 14:21:48;;;;;;;2.15;1.30;;;23.40;73.40;;;;;;5103078;28;20047;-71
2022/06/02 14:24:41;;;;;;;3.38;1.35;;;23.50;79.50;;;;;;5079927;28;20048;-71
2022/06/02 14:27:25;;;;;;;5.63;1.08;;;23.60;76.40;;;;;;5071460;28;20056;-73
2022/06/02 14:30:18;;;;;;;2.25;1.23;;;23.60;63.60;;;;;;5084643;28;20045;-73
2022/06/02 14:32:53;;;;;;;1.30;0.90;;;23.60;69.40;;;;;;5099855;28;20066;-73
2022/06/02 14:35:48;;;;;;;2.42;0.90;;;23.70;66.70;;;;;;5098697;28;20064;-73
2022/06/02 14:38:23;;;;;;;1.30;0.63;;;23.60;60.80;;;;;;5099633;28;20036;-73
2022/06/02 14:41:01;;;;;;;2.05;0.93;;;23.50;59.40;;;;;;5083114;28;20035;-72
2022/06/02 14:44:08;;;;;;;2.47;1.00;;;23.50;59.00;;;;;;5102239;28;20048;-73